createdAt,value
2023-04-04T00:00:53.721Z,1.40
2023-04-04T00:03:21.634Z,1.60
2023-04-04T00:05:52.373Z,1.30
2023-04-04T00:08:21.348Z,1.33
2023-04-04T00:10:49.139Z,2.03
2023-04-04T00:13:17.208Z,1.20
2023-04-04T00:15:45.310Z,1.20
2023-04-04T00:18:13.517Z,1.57
2023-04-04T00:20:41.425Z,1.33
2023-04-04T00:23:11.224Z,1.20
2023-04-04T00:25:39.125Z,1.50
2023-04-04T00:28:07.221Z,1.20
2023-04-04T00:30:35.262Z,1.30
2023-04-04T00:33:03.662Z,1.50
2023-04-04T00:35:31.300Z,1.90
2023-04-04T00:37:58.853Z,1.57
2023-04-04T00:40:26.764Z,1.40
2023-04-04T00:42:55.454Z,1.40
2023-04-04T00:45:23.253Z,1.37
2023-04-04T00:47:51.278Z,1.43
2023-04-04T00:50:19.639Z,1.50
2023-04-04T00:52:47.797Z,1.53
2023-04-04T00:55:16.668Z,1.97
2023-04-04T00:57:44.800Z,1.80
2023-04-04T01:00:12.765Z,1.40
2023-04-04T01:02:40.987Z,1.27
2023-04-04T01:05:09.385Z,1.33
2023-04-04T01:07:37.298Z,1.63
2023-04-04T01:10:06.614Z,1.60
2023-04-04T01:12:34.180Z,2.00
2023-04-04T01:15:02.496Z,1.33
2023-04-04T01:17:30.686Z,1.83
2023-04-04T01:20:08.114Z,2.03
2023-04-04T01:22:36.185Z,1.70
2023-04-04T01:25:03.975Z,1.80
2023-04-04T01:27:31.549Z,1.60
2023-04-04T01:29:59.695Z,1.50
2023-04-04T01:32:51.704Z,1.70
2023-04-04T01:35:21.553Z,1.50
2023-04-04T01:38:06.928Z,1.60
2023-04-04T01:40:39.950Z,2.17
2023-04-04T01:43:07.956Z,1.80
2023-04-04T01:45:36.373Z,1.40
2023-04-04T01:48:04.712Z,1.60
2023-04-04T01:50:32.050Z,1.73
2023-04-04T01:53:00.201Z,1.77
2023-04-04T01:55:28.117Z,1.70
2023-04-04T01:57:55.504Z,1.47
2023-04-04T02:00:23.746Z,2.00
2023-04-04T02:02:51.737Z,2.53
2023-04-04T02:05:19.335Z,2.00
2023-04-04T02:07:50.844Z,1.73
2023-04-04T02:10:18.620Z,1.53
2023-04-04T02:12:47.782Z,1.97
2023-04-04T02:15:16.042Z,1.53
2023-04-04T02:17:48.620Z,1.60
2023-04-04T02:20:19.345Z,1.90
2023-04-04T02:23:14.881Z,1.93
2023-04-04T02:25:42.961Z,1.90
2023-04-04T02:28:11.795Z,2.20
2023-04-04T02:30:40.502Z,1.80
2023-04-04T02:33:08.892Z,2.03
2023-04-04T02:35:40.892Z,2.07
2023-04-04T02:38:08.851Z,2.10
2023-04-04T02:40:40.081Z,2.10
2023-04-04T02:43:07.885Z,1.97
2023-04-04T02:45:35.419Z,2.10
2023-04-04T02:48:03.948Z,2.00
2023-04-04T02:50:31.882Z,1.77
2023-04-04T02:53:03.664Z,2.10
2023-04-04T02:55:31.510Z,2.03
2023-04-04T02:57:59.257Z,2.10
2023-04-04T03:00:27.339Z,1.90
2023-04-04T03:02:55.916Z,2.37
2023-04-04T03:05:26.982Z,1.80
2023-04-04T03:07:59.112Z,1.93
2023-04-04T03:10:29.969Z,2.20
2023-04-04T03:12:57.709Z,1.83
2023-04-04T03:15:26.591Z,2.60
2023-04-04T03:17:54.055Z,2.53
2023-04-04T03:20:22.197Z,1.93
2023-04-04T03:22:49.749Z,2.00
2023-04-04T03:25:17.728Z,2.20
2023-04-04T03:27:45.485Z,2.20
2023-04-04T03:30:14.373Z,2.37
2023-04-04T03:32:42.269Z,2.20
2023-04-04T03:35:10.043Z,2.23
2023-04-04T03:37:39.133Z,2.07
2023-04-04T03:40:09.720Z,2.00
2023-04-04T03:42:37.936Z,2.20
2023-04-04T03:45:07.443Z,2.00
2023-04-04T03:47:35.499Z,2.20
2023-04-04T03:50:03.773Z,2.10
2023-04-04T03:52:31.257Z,2.20
2023-04-04T03:54:59.454Z,2.10
2023-04-04T03:57:28.440Z,2.70
2023-04-04T03:59:56.485Z,2.60
2023-04-04T04:02:24.372Z,2.40
2023-04-04T04:04:53.921Z,2.27
2023-04-04T04:07:21.625Z,2.27
2023-04-04T04:09:49.843Z,2.30
2023-04-04T04:12:17.754Z,2.27
2023-04-04T04:14:45.611Z,1.73
2023-04-04T04:17:13.377Z,2.23
2023-04-04T04:19:41.204Z,2.13
2023-04-04T04:22:09.526Z,2.60
2023-04-04T04:24:37.079Z,1.97
2023-04-04T04:27:05.427Z,1.63
2023-04-04T04:29:33.366Z,1.80
2023-04-04T04:32:01.877Z,1.70
2023-04-04T04:34:29.840Z,1.87
2023-04-04T04:36:57.983Z,1.97
2023-04-04T04:39:26.174Z,1.63
2023-04-04T04:41:53.974Z,1.50
2023-04-04T04:44:22.442Z,1.40
2023-04-04T04:46:50.413Z,1.80
2023-04-04T04:49:17.996Z,1.60
2023-04-04T04:51:45.772Z,1.60
2023-04-04T04:54:13.869Z,1.83
2023-04-04T04:56:41.945Z,1.20
2023-04-04T04:59:11.639Z,1.57
2023-04-04T05:01:39.729Z,1.43
2023-04-04T05:04:07.803Z,1.60
2023-04-04T05:06:35.961Z,1.70
2023-04-04T05:09:05.050Z,2.03
2023-04-04T05:11:33.178Z,1.50
2023-04-04T05:14:00.908Z,1.20
2023-04-04T05:16:29.117Z,1.53
2023-04-04T05:18:57.299Z,1.37
2023-04-04T05:21:25.428Z,1.20
2023-04-04T05:23:53.477Z,1.17
2023-04-04T05:26:21.489Z,1.20
2023-04-04T05:28:49.635Z,1.30
2023-04-04T05:31:17.257Z,2.00
2023-04-04T05:33:45.703Z,1.50
2023-04-04T05:36:13.447Z,1.93
2023-04-04T05:38:41.365Z,1.40
2023-04-04T05:41:09.379Z,1.83
2023-04-04T05:43:37.089Z,1.97
2023-04-04T05:46:05.497Z,2.00
2023-04-04T05:48:33.192Z,1.80
2023-04-04T05:51:01.063Z,1.60
2023-04-04T05:53:28.680Z,1.50
2023-04-04T05:55:56.600Z,1.50
2023-04-04T05:58:24.836Z,1.60
2023-04-04T06:00:52.620Z,1.50
2023-04-04T06:03:22.482Z,1.10
2023-04-04T06:05:53.516Z,1.83
2023-04-04T06:08:21.319Z,1.27
2023-04-04T06:10:48.921Z,1.23
2023-04-04T06:13:16.853Z,1.30
2023-04-04T06:15:44.996Z,1.50
2023-04-04T06:18:13.122Z,1.33
2023-04-04T06:20:41.990Z,1.30
2023-04-04T06:23:10.378Z,1.30
2023-04-04T06:25:38.296Z,1.10
2023-04-04T06:28:06.914Z,1.47
2023-04-04T06:30:40.162Z,1.50
2023-04-04T06:33:07.828Z,1.40
2023-04-04T06:35:35.555Z,1.30
2023-04-04T06:38:04.384Z,1.30
2023-04-04T06:40:32.476Z,1.30
2023-04-04T06:43:00.363Z,1.07
2023-04-04T06:45:28.512Z,1.40
2023-04-04T06:47:56.276Z,1.03
2023-04-04T06:50:24.089Z,1.50
2023-04-04T06:52:52.085Z,1.30
2023-04-04T06:55:20.227Z,1.80
2023-04-04T06:57:48.386Z,1.40
2023-04-04T07:00:19.020Z,1.60
2023-04-04T07:02:47.004Z,1.10
2023-04-04T07:05:17.850Z,1.37
2023-04-04T07:07:47.143Z,1.27
2023-04-04T07:10:15.092Z,0.90
2023-04-04T07:12:43.451Z,1.07
2023-04-04T07:15:13.288Z,0.83
2023-04-04T07:17:41.660Z,1.00
2023-04-04T07:20:10.554Z,0.80
2023-04-04T07:22:39.865Z,0.93
2023-04-04T07:25:09.815Z,0.90
2023-04-04T07:27:37.670Z,0.83
2023-04-04T07:30:05.492Z,1.20
2023-04-04T07:32:35.941Z,1.00
2023-04-04T07:35:05.266Z,1.07
2023-04-04T07:37:33.640Z,1.13
2023-04-04T07:40:01.660Z,0.93
2023-04-04T07:42:31.270Z,0.90
2023-04-04T07:44:59.500Z,1.27
2023-04-04T07:47:27.827Z,1.03
2023-04-04T07:49:55.585Z,1.10
2023-04-04T07:52:23.270Z,1.20
2023-04-04T07:54:51.904Z,1.00
2023-04-04T07:57:20.092Z,1.20
2023-04-04T07:59:48.576Z,1.00
2023-04-04T08:02:17.844Z,1.00
2023-04-04T08:04:46.072Z,1.30
2023-04-04T08:07:14.393Z,1.10
2023-04-04T08:09:42.506Z,1.07
2023-04-04T08:12:09.963Z,1.20
2023-04-04T08:14:37.650Z,0.97
2023-04-04T08:17:05.597Z,1.20
2023-04-04T08:19:33.084Z,0.90
2023-04-04T08:22:01.186Z,0.90
2023-04-04T08:24:29.155Z,1.20
2023-04-04T08:27:04.460Z,1.43
2023-04-04T08:29:33.381Z,1.17
2023-04-04T08:32:01.301Z,1.27
2023-04-04T08:34:28.796Z,1.00
2023-04-04T08:36:57.078Z,1.03
2023-04-04T08:39:25.131Z,4.00
2023-04-04T08:41:58.865Z,2.97
2023-04-04T08:44:27.593Z,1.60
2023-04-04T08:46:55.288Z,1.30
2023-04-04T08:49:22.255Z,1.10
2023-04-04T08:51:49.389Z,1.30
2023-04-04T08:54:17.875Z,1.70
2023-04-04T08:56:46.037Z,1.10
2023-04-04T08:59:15.745Z,1.10
2023-04-04T09:01:43.878Z,1.00
2023-04-04T09:04:11.525Z,1.23
2023-04-04T09:06:38.651Z,1.00
2023-04-04T09:09:06.769Z,1.10
2023-04-04T09:11:35.091Z,1.30
2023-04-04T09:14:05.144Z,1.17
2023-04-04T09:16:33.258Z,1.20
2023-04-04T09:19:00.942Z,1.40
2023-04-04T09:21:29.345Z,1.23
2023-04-04T09:24:01.098Z,1.50
2023-04-04T09:26:28.698Z,1.33
2023-04-04T09:28:56.925Z,1.40
2023-04-04T09:31:25.012Z,1.77
2023-04-04T09:33:52.776Z,1.20
2023-04-04T09:36:20.752Z,1.33
2023-04-04T09:38:49.561Z,0.90
2023-04-04T09:41:16.995Z,1.03
2023-04-04T09:43:48.568Z,1.30
2023-04-04T09:46:16.263Z,1.10
2023-04-04T09:48:43.603Z,1.13
2023-04-04T09:51:13.423Z,1.20
2023-04-04T09:53:42.458Z,1.20
2023-04-04T09:56:12.063Z,1.33
2023-04-04T09:58:44.281Z,1.17
2023-04-04T10:01:16.652Z,1.20
2023-04-04T10:03:44.254Z,1.43
2023-04-04T10:06:12.488Z,1.70
2023-04-04T10:08:40.674Z,1.20
2023-04-04T10:11:11.277Z,1.33
2023-04-04T10:13:44.766Z,1.40
2023-04-04T10:16:12.390Z,1.40
2023-04-04T10:18:39.831Z,1.23
2023-04-04T10:23:39.094Z,1.33
2023-04-04T10:26:06.742Z,1.47
2023-04-04T10:28:34.578Z,1.23
2023-04-04T10:31:18.299Z,1.33
2023-04-04T10:34:12.625Z,1.30
2023-04-04T10:36:46.081Z,1.50
2023-04-04T10:39:23.925Z,1.63
2023-04-04T10:41:52.871Z,1.50
2023-04-04T10:45:06.057Z,1.40
2023-04-04T10:47:40.882Z,1.60
2023-04-04T10:50:13.646Z,2.37
2023-04-04T10:52:42.210Z,1.70
2023-04-04T10:55:11.115Z,1.13
2023-04-04T10:57:46.389Z,1.67
2023-04-04T11:00:18.336Z,1.40
2023-04-04T11:02:48.336Z,1.40
2023-04-04T11:05:31.746Z,1.20
2023-04-04T11:10:42.185Z,1.33
2023-04-04T11:13:22.890Z,1.20
2023-04-04T11:16:00.339Z,1.63
2023-04-04T11:18:34.201Z,1.40
2023-04-04T11:21:08.089Z,1.45
2023-04-04T11:23:50.019Z,1.40
2023-04-04T11:26:46.272Z,2.10
2023-04-04T11:29:21.249Z,1.53
2023-04-04T11:31:49.828Z,1.40
2023-04-04T11:34:30.540Z,1.98
2023-04-04T11:37:01.816Z,1.48
2023-04-04T11:39:33.831Z,1.50
2023-04-04T11:42:09.044Z,1.60
2023-04-04T11:45:03.630Z,2.50
2023-04-04T11:47:31.664Z,2.00
2023-04-04T11:50:01.597Z,1.80
2023-04-04T11:52:35.591Z,1.50
2023-04-04T11:55:03.634Z,1.63
2023-04-04T11:57:31.296Z,1.67
2023-04-04T11:59:59.028Z,1.80
2023-04-04T12:02:34.757Z,1.50
2023-04-04T12:05:02.856Z,1.85
2023-04-04T12:07:29.639Z,1.97
2023-04-04T12:09:57.850Z,1.67
2023-04-04T12:12:31.504Z,1.77
2023-04-04T12:15:10.487Z,1.67
2023-04-04T12:17:44.481Z,1.70
2023-04-04T12:20:13.223Z,1.70
2023-04-04T12:22:46.781Z,1.93
2023-04-04T12:25:14.523Z,2.00
2023-04-04T12:27:42.959Z,1.50
2023-04-04T12:30:15.860Z,1.65
2023-04-04T12:32:47.332Z,1.40
2023-04-04T12:35:15.792Z,1.80
2023-04-04T12:38:10.874Z,1.83
2023-04-04T12:40:38.654Z,1.48
2023-04-04T12:43:27.969Z,1.70
2023-04-04T12:45:55.794Z,1.70
2023-04-04T12:48:27.493Z,2.00
2023-04-04T12:50:59.222Z,2.38
2023-04-04T12:53:29.413Z,1.70
2023-04-04T12:56:00.299Z,1.65
2023-04-04T12:58:27.163Z,1.48
2023-04-04T13:00:55.634Z,1.70
2023-04-04T13:03:26.229Z,1.67
2023-04-04T13:05:54.257Z,2.20
2023-04-04T13:08:21.398Z,1.80
2023-04-04T13:11:05.257Z,1.75
2023-04-04T13:13:40.707Z,1.88
2023-04-04T13:16:09.077Z,1.75
2023-04-04T13:18:44.276Z,1.85
2023-04-04T13:21:13.262Z,1.73
2023-04-04T13:23:41.399Z,1.73
2023-04-04T13:26:09.458Z,1.63
2023-04-04T13:28:37.730Z,1.50
2023-04-04T13:31:05.689Z,2.00
2023-04-04T13:33:33.734Z,2.47
2023-04-04T13:36:01.493Z,1.85
2023-04-04T13:38:29.902Z,1.77
2023-04-04T13:41:00.935Z,2.00
2023-04-04T13:43:28.789Z,1.70
2023-04-04T13:45:56.352Z,2.05
2023-04-04T13:48:24.513Z,1.88
2023-04-04T13:50:53.399Z,1.98
2023-04-04T13:53:21.284Z,2.40
2023-04-04T13:58:20.605Z,1.83
2023-04-04T14:00:50.684Z,1.75
2023-04-04T14:03:18.855Z,1.60
2023-04-04T14:05:46.964Z,2.05
2023-04-04T14:08:14.809Z,2.30
2023-04-04T14:10:42.428Z,1.92
2023-04-04T14:13:10.426Z,2.10
2023-04-04T14:15:39.937Z,2.00
2023-04-04T14:18:07.951Z,1.67
2023-04-04T14:20:41.612Z,1.90
2023-04-04T14:23:09.574Z,1.90
2023-04-04T14:25:37.103Z,1.77
2023-04-04T14:28:05.316Z,1.88
2023-04-04T14:30:33.525Z,1.77
2023-04-04T14:33:01.355Z,2.03
2023-04-04T14:35:29.630Z,2.40
2023-04-04T14:37:59.788Z,2.30
2023-04-04T14:40:29.617Z,2.88
2023-04-04T14:42:57.226Z,2.20
2023-04-04T14:45:25.370Z,2.28
2023-04-04T14:47:53.620Z,2.42
2023-04-04T14:50:21.207Z,2.20
2023-04-04T14:52:51.248Z,2.13
2023-04-04T14:55:19.677Z,2.13
2023-04-04T14:58:01.334Z,1.92
2023-04-04T15:00:30.749Z,2.15
2023-04-04T15:02:58.984Z,1.50
2023-04-04T15:05:27.250Z,1.88
2023-04-04T15:07:55.846Z,1.60
2023-04-04T15:10:23.971Z,2.00
2023-04-04T15:12:51.869Z,2.03
2023-04-04T15:15:20.621Z,1.97
2023-04-04T15:17:50.203Z,2.73
2023-04-04T15:20:18.450Z,2.17
2023-04-04T15:22:46.554Z,2.23
2023-04-04T15:25:14.123Z,5.80
2023-04-04T15:27:42.045Z,2.17
2023-04-04T15:30:13.168Z,2.70
2023-04-04T15:32:40.838Z,1.87
2023-04-04T15:35:16.132Z,3.20
2023-04-04T15:37:44.504Z,2.50
2023-04-04T15:40:13.418Z,2.80
2023-04-04T15:42:41.483Z,2.10
2023-04-04T15:45:11.380Z,2.07
2023-04-04T15:47:40.232Z,2.27
2023-04-04T15:50:11.135Z,2.00
2023-04-04T15:52:39.078Z,2.53
2023-04-04T15:55:11.799Z,2.13
2023-04-04T15:57:39.677Z,2.13
2023-04-04T16:00:09.546Z,2.20
2023-04-04T16:02:37.471Z,2.20
2023-04-04T16:05:06.213Z,1.97
2023-04-04T16:07:34.018Z,2.10
2023-04-04T16:10:02.201Z,2.27
2023-04-04T16:12:30.214Z,1.80
2023-04-04T16:14:57.719Z,2.10
2023-04-04T16:17:26.276Z,2.00
2023-04-04T16:19:53.971Z,1.90
2023-04-04T16:22:22.024Z,1.90
2023-04-04T16:24:50.156Z,2.10
2023-04-04T16:27:17.810Z,2.53
2023-04-04T16:29:46.103Z,2.53
2023-04-04T16:32:14.262Z,2.30
2023-04-04T16:34:41.870Z,3.10
2023-04-04T16:37:11.161Z,2.30
2023-04-04T16:39:38.697Z,2.30
2023-04-04T16:42:06.921Z,2.40
2023-04-04T16:44:34.852Z,2.37
2023-04-04T16:47:02.887Z,2.10
2023-04-04T16:49:30.760Z,2.33
2023-04-04T16:51:58.574Z,2.10
2023-04-04T16:54:26.655Z,2.07
2023-04-04T16:56:54.528Z,2.00
2023-04-04T16:59:22.741Z,1.83
2023-04-04T17:01:50.470Z,1.80
2023-04-04T17:04:18.672Z,2.00
2023-04-04T17:06:47.302Z,2.67
2023-04-04T17:09:16.248Z,1.90
2023-04-04T17:11:47.063Z,1.90
2023-04-04T17:14:16.412Z,2.00
2023-04-04T17:16:44.904Z,1.80
2023-04-04T17:19:12.980Z,2.10
2023-04-04T17:21:41.188Z,2.03
2023-04-04T17:24:09.333Z,1.97
2023-04-04T17:26:38.256Z,2.20
2023-04-04T17:29:06.847Z,2.07
2023-04-04T17:31:34.553Z,1.80
2023-04-04T17:34:02.972Z,2.77
2023-04-04T17:36:32.179Z,3.30
2023-04-04T17:39:01.276Z,2.83
2023-04-04T17:41:29.386Z,2.60
2023-04-04T17:43:57.296Z,2.97
2023-04-04T17:46:25.901Z,2.83
2023-04-04T17:48:53.868Z,2.57
2023-04-04T17:51:21.692Z,3.10
2023-04-04T17:53:51.328Z,3.23
2023-04-04T17:56:19.170Z,3.37
2023-04-04T17:58:48.094Z,3.00
2023-04-04T18:01:43.360Z,2.77
2023-04-04T18:04:11.933Z,3.30
2023-04-04T18:06:41.899Z,3.10
2023-04-04T18:09:11.045Z,3.27
2023-04-04T18:11:39.145Z,3.80
2023-04-04T18:14:06.964Z,3.43
2023-04-04T18:16:39.657Z,3.87
2023-04-04T18:19:09.587Z,2.87
2023-04-04T18:21:38.524Z,2.80
2023-04-04T18:24:08.026Z,2.50
2023-04-04T18:26:36.146Z,3.10
2023-04-04T18:29:04.312Z,3.80
2023-04-04T18:31:31.581Z,3.30
2023-04-04T18:33:59.500Z,3.00
2023-04-04T18:36:27.578Z,2.47
2023-04-04T18:38:55.214Z,2.77
2023-04-04T18:41:22.302Z,2.63
2023-04-04T18:43:50.583Z,2.53
2023-04-04T18:46:19.113Z,2.60
2023-04-04T18:48:51.072Z,3.10
2023-04-04T18:51:20.476Z,3.23
2023-04-04T18:53:49.417Z,2.70
2023-04-04T18:56:17.651Z,2.57
2023-04-04T18:58:45.672Z,3.40
2023-04-04T19:01:13.595Z,3.80
2023-04-04T19:03:43.156Z,3.90
2023-04-04T19:06:11.089Z,4.00
2023-04-04T19:08:43.228Z,3.73
2023-04-04T19:11:11.098Z,4.20
2023-04-04T19:13:38.605Z,4.97
2023-04-04T19:16:06.601Z,4.63
2023-04-04T19:18:34.730Z,5.60
2023-04-04T19:21:02.541Z,4.13
2023-04-04T19:23:29.956Z,3.73
2023-04-04T19:26:02.032Z,3.40
2023-04-04T19:28:29.478Z,3.00
2023-04-04T19:30:57.628Z,2.97
2023-04-04T19:33:28.539Z,2.97
2023-04-04T19:36:01.396Z,2.73
2023-04-04T19:38:30.628Z,3.50
2023-04-04T19:41:04.292Z,3.27
2023-04-04T19:43:31.601Z,3.70
2023-04-04T19:46:09.572Z,3.50
2023-04-04T19:48:36.345Z,3.60
2023-04-04T19:51:22.825Z,3.50
2023-04-04T19:53:51.793Z,4.00
2023-04-04T19:56:20.555Z,3.60
2023-04-04T19:58:49.314Z,3.40
2023-04-04T20:01:21.529Z,3.40
2023-04-04T20:03:49.516Z,3.50
2023-04-04T20:06:29.945Z,3.57
2023-04-04T20:09:01.213Z,3.90
2023-04-04T20:11:32.333Z,3.57
2023-04-04T20:14:01.283Z,3.40
2023-04-04T20:16:29.910Z,3.40
2023-04-04T20:18:59.265Z,3.23
2023-04-04T20:21:28.506Z,3.63
2023-04-04T20:24:01.283Z,3.20
2023-04-04T20:26:46.396Z,3.70
2023-04-04T20:29:15.441Z,4.00
2023-04-04T20:31:47.641Z,3.63
2023-04-04T20:34:27.721Z,3.30
2023-04-04T20:36:55.463Z,4.10
2023-04-04T20:39:53.134Z,4.10
2023-04-04T20:42:51.002Z,3.80
2023-04-04T20:45:27.281Z,3.28
2023-04-04T20:47:58.391Z,4.03
2023-04-04T20:50:27.308Z,3.80
2023-04-04T20:53:00.781Z,4.40
2023-04-04T20:55:29.663Z,3.70
2023-04-04T20:58:06.950Z,4.13
2023-04-04T21:00:36.753Z,4.00
2023-04-04T21:03:25.450Z,3.43
2023-04-04T21:06:17.912Z,4.63
2023-04-04T21:08:48.727Z,4.57
2023-04-04T21:11:39.479Z,4.40
2023-04-04T21:14:07.408Z,3.50
2023-04-04T21:16:34.701Z,3.80
2023-04-04T21:19:02.530Z,3.60
2023-04-04T21:21:29.876Z,3.80
2023-04-04T21:23:57.991Z,4.00
2023-04-04T21:26:36.932Z,3.80
2023-04-04T21:29:04.553Z,4.40
2023-04-04T21:31:59.041Z,3.73
2023-04-04T21:34:27.338Z,3.93
2023-04-04T21:37:01.463Z,3.80
2023-04-04T21:39:30.068Z,3.40
2023-04-04T21:42:03.695Z,4.40
2023-04-04T21:44:32.918Z,3.83
2023-04-04T21:47:00.595Z,4.00
2023-04-04T21:49:28.379Z,4.40
2023-04-04T21:51:56.412Z,3.70
2023-04-04T21:54:24.027Z,3.30
2023-04-04T21:56:52.117Z,3.90
2023-04-04T21:59:20.176Z,3.37
2023-04-04T22:01:48.452Z,3.50
2023-04-04T22:04:16.468Z,3.37
2023-04-04T22:06:44.366Z,3.63
2023-04-04T22:09:11.920Z,3.40
2023-04-04T22:11:44.214Z,3.43
2023-04-04T22:14:17.475Z,3.70
2023-04-04T22:16:45.917Z,4.10
2023-04-04T22:19:14.346Z,3.47
2023-04-04T22:21:47.149Z,4.37
2023-04-04T22:24:15.989Z,3.80
2023-04-04T22:26:46.011Z,3.80
2023-04-04T22:29:14.458Z,3.47
2023-04-04T22:31:42.206Z,3.67
2023-04-04T22:34:10.787Z,4.30
2023-04-04T22:36:43.882Z,4.07
2023-04-04T22:39:12.125Z,4.13
2023-04-04T22:41:39.731Z,3.83
2023-04-04T22:44:07.987Z,4.17
2023-04-04T22:46:36.168Z,4.37
2023-04-04T22:49:07.226Z,4.17
2023-04-04T22:51:44.057Z,3.80
2023-04-04T22:56:42.302Z,3.80
2023-04-04T22:59:10.287Z,4.97
2023-04-04T23:01:38.286Z,4.13
2023-04-04T23:04:06.436Z,3.80
2023-04-04T23:06:34.621Z,4.50
2023-04-04T23:09:03.201Z,4.97
2023-04-04T23:11:31.521Z,4.43
2023-04-04T23:14:00.402Z,5.23
2023-04-04T23:16:28.930Z,4.70
2023-04-04T23:18:57.236Z,5.27
2023-04-04T23:21:25.184Z,5.13
2023-04-04T23:23:52.835Z,4.87
2023-04-04T23:26:20.481Z,5.30
2023-04-04T23:28:48.695Z,4.90
2023-04-04T23:31:17.003Z,4.83
2023-04-04T23:33:44.645Z,4.70
2023-04-04T23:36:12.672Z,4.97
2023-04-04T23:38:40.423Z,5.00
2023-04-04T23:41:08.527Z,4.43
2023-04-04T23:43:36.269Z,4.40
2023-04-04T23:46:03.218Z,4.43
2023-04-04T23:48:31.279Z,3.47
2023-04-04T23:51:01.816Z,4.10
2023-04-04T23:53:29.759Z,5.20
2023-04-04T23:55:57.901Z,5.20
2023-04-04T23:58:25.934Z,4.97
